Terminal Aerodrome Forecast
Issued by NWS Grand Forks, ND

Home | Current Version | Previous Version | Graphics & Text | Print | Product List | Glossary On
Versions: 1 2 3 4 5 6 7 8 9 10 11 12 13 14 15 16 17 18 19 20 21 22 23 24
951
FTUS43 KFGF 111120
TAFFAR
TAF
KFAR 111120Z 1112/1212 32019G28KT P6SM OVC015
     FM111300 33022G33KT P6SM OVC008
     FM111800 34023G34KT P6SM OVC015
     FM112200 34019KT P6SM SCT030
     FM120400 34008KT P6SM SCT250
     FM121100 22004KT P6SM BKN025=

USA.gov is the U.S. government's official web portal to all federal, state and local government web resources and services.